Time,TemperatureF,DewpointF,PressureIn,WindDirection,WindDirectionDegrees,WindSpeedMPH,WindSpeedGustMPH,Humidity,HourlyPrecipIn,Conditions,Clouds,dailyrainin,SoftwareType,DateUTC
2013-11-03 00:00:00,39.6,37.8,29.75,East,89,0.0,0.0,93,0.00,,,0.00,meteohub,2013-11-03 04:00:00,
2013-11-03 00:01:00,39.6,37.8,29.75,East,89,0.0,0.0,93,0.00,,,0.00,meteohub,2013-11-03 04:01:00,
2013-11-03 00:02:00,39.6,37.8,29.75,East,89,0.0,0.0,93,0.00,,,0.00,meteohub,2013-11-03 04:02:00,
2013-11-03 00:06:00,39.4,37.6,29.75,East,89,0.0,0.0,93,0.00,,,0.00,meteohub,2013-11-03 04:06:00,
2013-11-03 00:11:00,39.2,37.4,29.75,East,89,0.0,0.0,93,0.00,,,0.00,meteohub,2013-11-03 04:11:00,
2013-11-03 00:16:00,38.8,37.0,29.75,East,89,0.0,0.0,93,0.00,,,0.00,meteohub,2013-11-03 04:16:00,
2013-11-03 00:17:00,38.8,37.0,29.75,East,89,0.0,0.0,93,0.00,,,0.00,meteohub,2013-11-03 04:17:00,
2013-11-03 00:22:00,38.5,36.7,29.76,East,89,0.0,0.0,93,0.00,,,0.00,meteohub,2013-11-03 04:22:00,
2013-11-03 00:27:00,38.3,36.5,29.76,East,89,0.0,0.0,93,0.00,,,0.00,meteohub,2013-11-03 04:27:00,
2013-11-03 00:32:00,37.9,36.1,29.76,East,89,0.0,0.0,93,0.00,,,0.00,meteohub,2013-11-03 04:32:00,
2013-11-03 00:38:00,37.6,35.8,29.76,East,89,0.0,0.0,93,0.00,,,0.00,meteohub,2013-11-03 04:38:00,
2013-11-03 00:43:00,37.2,35.4,29.76,East,89,0.0,0.0,93,0.00,,,0.00,meteohub,2013-11-03 04:43:00,
2013-11-03 00:48:00,37.2,35.6,29.76,East,89,0.0,0.0,94,0.00,,,0.00,meteohub,2013-11-03 04:48:00,
2013-11-03 00:53:00,37.2,35.6,29.76,East,89,0.0,0.0,94,0.00,,,0.00,meteohub,2013-11-03 04:53:00,
2013-11-03 00:58:00,37.2,35.6,29.77,East,89,0.0,0.0,94,0.00,,,0.00,meteohub,2013-11-03 04:58:00,
2013-11-03 01:03:00,37.0,35.8,29.77,East,89,0.0,0.0,95,0.00,,,0.00,meteohub,2013-11-03 05:03:00,
2013-11-03 01:08:00,37.0,35.8,29.77,East,89,0.0,0.0,95,0.00,,,0.00,meteohub,2013-11-03 05:08:00,
2013-11-03 01:13:00,36.7,35.4,29.77,East,89,0.0,0.0,95,0.00,,,0.00,meteohub,2013-11-03 05:13:00,
2013-11-03 01:18:00,36.5,35.2,29.77,East,89,0.0,0.0,95,0.00,,,0.00,meteohub,2013-11-03 05:18:00,
2013-11-03 01:23:00,36.7,35.4,29.77,East,89,0.0,0.0,95,0.00,,,0.00,meteohub,2013-11-03 05:23:00,
2013-11-03 01:28:00,36.5,35.2,29.78,East,89,0.0,0.0,95,0.00,,,0.00,meteohub,2013-11-03 05:28:00,
2013-11-03 01:33:00,36.1,34.9,29.78,East,89,0.0,0.0,95,0.00,,,0.00,meteohub,2013-11-03 05:33:00,
2013-11-03 01:38:00,36.0,34.7,29.78,East,89,0.0,0.0,95,0.00,,,0.00,meteohub,2013-11-03 05:38:00,
2013-11-03 01:43:00,35.8,34.5,29.78,East,89,0.0,0.0,95,0.00,,,0.00,meteohub,2013-11-03 05:43:00,
2013-11-03 01:48:00,36.0,34.7,29.78,East,89,0.0,0.0,95,0.00,,,0.00,meteohub,2013-11-03 05:48:00,
2013-11-03 01:53:00,36.0,34.7,29.79,East,89,0.0,0.0,95,0.00,,,0.00,meteohub,2013-11-03 05:53:00,
2013-11-03 01:58:00,35.8,34.5,29.79,East,89,0.0,0.0,95,0.00,,,0.00,meteohub,2013-11-03 05:58:00,
2013-11-03 01:03:00,35.6,34.3,29.80,East,89,0.0,0.0,95,0.00,,,0.00,meteohub,2013-11-03 06:03:00,
2013-11-03 01:09:00,35.6,34.5,29.79,East,89,0.0,0.0,96,0.00,,,0.00,meteohub,2013-11-03 06:09:00,
2013-11-03 01:14:00,35.6,34.5,29.79,East,89,0.0,0.0,96,0.00,,,0.00,meteohub,2013-11-03 06:14:00,
2013-11-03 01:19:00,35.8,34.7,29.79,East,89,0.0,0.0,96,0.00,,,0.00,meteohub,2013-11-03 06:19:00,
2013-11-03 01:24:00,36.0,34.9,29.80,East,89,0.0,0.0,96,0.00,,,0.00,meteohub,2013-11-03 06:24:00,
2013-11-03 01:29:00,36.0,34.9,29.80,East,89,0.0,0.0,96,0.00,,,0.00,meteohub,2013-11-03 06:29:00,
2013-11-03 01:34:00,36.0,34.9,29.80,East,89,0.0,0.0,96,0.00,,,0.00,meteohub,2013-11-03 06:34:00,
2013-11-03 01:39:00,36.0,34.9,29.80,East,89,0.0,0.0,96,0.00,,,0.00,meteohub,2013-11-03 06:39:00,
2013-11-03 01:44:00,36.1,35.1,29.80,East,89,0.0,0.0,96,0.00,,,0.00,meteohub,2013-11-03 06:44:00,
2013-11-03 01:49:00,36.1,35.1,29.81,East,89,0.0,0.0,96,0.00,,,0.00,meteohub,2013-11-03 06:49:00,
2013-11-03 01:54:00,36.3,35.2,29.81,East,89,0.0,0.0,96,0.00,,,0.00,meteohub,2013-11-03 06:54:00,
2013-11-03 01:59:00,36.9,36.1,29.81,East,89,0.0,0.0,97,0.00,,,0.00,meteohub,2013-11-03 06:59:00,
2013-11-03 02:04:00,37.2,36.5,29.81,East,89,0.0,0.0,97,0.00,,,0.00,meteohub,2013-11-03 07:04:00,
2013-11-03 02:09:00,37.4,36.7,29.81,East,89,0.0,0.0,97,0.00,,,0.00,meteohub,2013-11-03 07:09:00,
2013-11-03 02:14:00,37.8,37.0,29.82,East,89,0.0,0.0,97,0.00,,,0.00,meteohub,2013-11-03 07:14:00,
2013-11-03 02:19:00,37.9,37.2,29.82,East,89,0.0,0.0,97,0.00,,,0.00,meteohub,2013-11-03 07:19:00,
2013-11-03 02:24:00,38.1,37.4,29.82,East,89,0.0,0.0,97,0.00,,,0.00,meteohub,2013-11-03 07:24:00,
2013-11-03 02:29:00,38.5,37.8,29.82,East,89,0.0,0.0,97,0.00,,,0.00,meteohub,2013-11-03 07:29:00,
2013-11-03 02:35:00,38.7,37.9,29.82,East,89,0.0,0.0,97,0.00,,,0.00,meteohub,2013-11-03 07:35:00,
2013-11-03 02:40:00,38.8,38.1,29.82,East,89,0.0,0.0,97,0.00,,,0.00,meteohub,2013-11-03 07:40:00,
2013-11-03 02:45:00,39.2,38.5,29.82,East,89,0.0,0.0,97,0.00,,,0.00,meteohub,2013-11-03 07:45:00,
2013-11-03 02:50:00,39.4,38.7,29.82,East,89,0.0,0.0,97,0.00,,,0.00,meteohub,2013-11-03 07:50:00,
2013-11-03 02:55:00,39.4,38.7,29.82,East,89,0.0,0.0,97,0.00,,,0.00,meteohub,2013-11-03 07:55:00,
2013-11-03 03:00:00,39.4,38.7,29.83,East,89,0.0,0.0,97,0.00,,,0.00,meteohub,2013-11-03 08:00:00,
2013-11-03 03:05:00,39.2,38.5,29.83,East,89,0.0,0.0,97,0.00,,,0.00,meteohub,2013-11-03 08:05:00,
2013-11-03 03:10:00,39.4,38.7,29.83,East,89,0.0,0.0,97,0.00,,,0.00,meteohub,2013-11-03 08:10:00,
2013-11-03 03:15:00,39.4,38.7,29.83,East,89,0.0,0.0,97,0.00,,,0.00,meteohub,2013-11-03 08:15:00,
2013-11-03 03:20:00,39.6,38.8,29.83,East,89,0.0,0.0,97,0.00,,,0.00,meteohub,2013-11-03 08:20:00,
2013-11-03 03:25:00,39.7,39.0,29.83,East,89,0.0,0.0,97,0.00,,,0.00,meteohub,2013-11-03 08:25:00,
2013-11-03 03:30:00,39.9,39.2,29.84,East,89,0.0,0.0,97,0.00,,,0.00,meteohub,2013-11-03 08:30:00,
2013-11-03 03:35:00,40.1,39.4,29.84,East,89,0.0,0.0,97,0.00,,,0.00,meteohub,2013-11-03 08:35:00,
2013-11-03 03:40:00,40.3,39.6,29.84,East,89,0.0,0.0,97,0.00,,,0.00,meteohub,2013-11-03 08:40:00,
2013-11-03 03:45:00,40.5,39.7,29.84,East,89,0.0,0.0,97,0.00,,,0.00,meteohub,2013-11-03 08:45:00,
2013-11-03 03:50:00,40.6,39.9,29.84,East,89,0.0,0.0,97,0.00,,,0.00,meteohub,2013-11-03 08:50:00,
2013-11-03 03:55:00,40.8,40.3,29.85,SE,127,0.0,0.0,98,0.00,,,0.00,meteohub,2013-11-03 08:55:00,
2013-11-03 04:00:00,41.4,40.8,29.85,ENE,77,1.0,0.0,98,0.00,,,0.00,meteohub,2013-11-03 09:00:00,
2013-11-03 04:06:00,43.0,42.4,29.85,West,265,2.0,7.0,98,0.00,,,0.00,meteohub,2013-11-03 09:06:00,
2013-11-03 04:11:00,44.1,43.5,29.86,West,281,4.0,7.0,98,0.00,,,0.00,meteohub,2013-11-03 09:11:00,
2013-11-03 04:16:00,44.6,43.3,29.86,WNW,287,0.0,7.0,95,0.00,,,0.00,meteohub,2013-11-03 09:16:00,
2013-11-03 04:21:00,45.1,42.6,29.86,SSW,203,2.0,7.0,91,0.00,,,0.00,meteohub,2013-11-03 09:21:00,
2013-11-03 04:26:00,45.5,42.1,29.87,NW,318,3.0,7.0,88,0.00,,,0.00,meteohub,2013-11-03 09:26:00,
2013-11-03 04:31:00,45.7,42.1,29.87,WSW,256,3.0,7.0,87,0.00,,,0.00,meteohub,2013-11-03 09:31:00,
2013-11-03 04:36:00,45.7,41.7,29.87,West,273,1.0,6.0,86,0.00,,,0.00,meteohub,2013-11-03 09:36:00,
2013-11-03 04:41:00,45.7,41.4,29.88,WNW,283,1.0,6.0,85,0.00,,,0.00,meteohub,2013-11-03 09:41:00,
2013-11-03 04:46:00,45.5,41.2,29.88,WSW,250,1.0,6.0,85,0.00,,,0.00,meteohub,2013-11-03 09:46:00,
2013-11-03 04:51:00,45.1,40.8,29.88,WNW,290,3.0,6.0,85,0.00,,,0.00,meteohub,2013-11-03 09:51:00,
2013-11-03 04:57:00,45.1,40.6,29.88,SSW,198,0.0,6.0,84,0.00,,,0.00,meteohub,2013-11-03 09:57:00,
2013-11-03 05:02:00,45.0,40.5,29.88,SW,217,0.0,5.0,84,0.00,,,0.00,meteohub,2013-11-03 10:02:00,
2013-11-03 05:07:00,44.6,40.1,29.89,West,281,2.0,5.0,84,0.00,,,0.00,meteohub,2013-11-03 10:07:00,
2013-11-03 05:12:00,44.4,39.9,29.89,SSE,160,0.0,5.0,84,0.00,,,0.00,meteohub,2013-11-03 10:12:00,
2013-11-03 05:17:00,44.2,40.1,29.90,ENE,60,3.0,4.0,85,0.00,,,0.00,meteohub,2013-11-03 10:17:00,
2013-11-03 05:22:00,44.1,39.9,29.90,SE,135,0.0,4.0,85,0.00,,,0.00,meteohub,2013-11-03 10:22:00,
2013-11-03 05:27:00,43.9,39.4,29.91,ESE,117,2.0,4.0,84,0.00,,,0.00,meteohub,2013-11-03 10:27:00,
2013-11-03 05:32:00,43.9,39.4,29.91,East,94,0.0,4.0,84,0.00,,,0.00,meteohub,2013-11-03 10:32:00,
2013-11-03 05:37:00,43.9,39.4,29.91,ENE,67,3.0,4.0,84,0.00,,,0.00,meteohub,2013-11-03 10:37:00,
2013-11-03 05:42:00,44.1,39.2,29.92,WSW,253,0.0,4.0,83,0.00,,,0.00,meteohub,2013-11-03 10:42:00,
2013-11-03 05:47:00,44.1,39.2,29.92,North,8,1.0,4.0,83,0.00,,,0.00,meteohub,2013-11-03 10:47:00,
2013-11-03 05:52:00,44.2,39.0,29.92,WNW,287,3.0,4.0,82,0.00,,,0.00,meteohub,2013-11-03 10:52:00,
2013-11-03 05:57:00,44.2,38.8,29.93,WSW,249,1.0,5.0,81,0.00,,,0.00,meteohub,2013-11-03 10:57:00,
2013-11-03 06:02:00,44.2,38.5,29.93,NW,311,1.0,5.0,80,0.00,,,0.00,meteohub,2013-11-03 11:02:00,
2013-11-03 06:07:00,44.4,38.7,29.93,West,265,1.0,5.0,80,0.00,,,0.00,meteohub,2013-11-03 11:07:00,
2013-11-03 06:12:00,44.4,38.7,29.94,WNW,302,1.0,5.0,80,0.00,,,0.00,meteohub,2013-11-03 11:12:00,
2013-11-03 06:17:00,44.4,38.3,29.94,West,263,1.0,5.0,79,0.00,,,0.00,meteohub,2013-11-03 11:17:00,
2013-11-03 06:22:00,44.4,38.3,29.94,WSW,241,1.0,6.0,79,0.00,,,0.00,meteohub,2013-11-03 11:22:00,
2013-11-03 06:27:00,44.4,38.3,29.95,NE,34,0.0,6.0,79,0.00,,,0.00,meteohub,2013-11-03 11:27:00,
2013-11-03 06:32:00,44.4,38.3,29.95,WNW,300,3.0,5.0,79,0.00,,,0.00,meteohub,2013-11-03 11:32:00,
2013-11-03 06:37:00,44.4,38.7,29.96,WNW,292,1.0,6.0,80,0.00,,,0.00,meteohub,2013-11-03 11:37:00,
2013-11-03 06:42:00,44.4,38.3,29.96,WNW,297,5.0,6.0,79,0.00,,,0.00,meteohub,2013-11-03 11:42:00,
2013-11-03 06:47:00,44.4,38.3,29.97,SE,143,2.0,9.0,79,0.00,,,0.00,meteohub,2013-11-03 11:47:00,
2013-11-03 06:52:00,44.2,38.1,29.97,WNW,294,5.0,9.0,79,0.00,,,0.00,meteohub,2013-11-03 11:52:00,
2013-11-03 06:57:00,44.1,37.6,29.97,West,270,1.0,9.0,78,0.00,,,0.00,meteohub,2013-11-03 11:57:00,
2013-11-03 07:02:00,44.1,37.6,29.98,SSW,200,5.0,6.0,78,0.00,,,0.00,meteohub,2013-11-03 12:02:00,
2013-11-03 07:07:00,44.1,37.4,29.98,SW,229,4.0,8.0,77,0.00,,,0.00,meteohub,2013-11-03 12:07:00,
2013-11-03 07:12:00,44.1,37.4,29.99,ESE,117,0.0,8.0,77,0.00,,,0.00,meteohub,2013-11-03 12:12:00,
2013-11-03 07:17:00,44.1,37.0,29.99,WNW,287,2.0,8.0,76,0.00,,,0.00,meteohub,2013-11-03 12:17:00,
2013-11-03 07:22:00,44.1,36.3,29.99,East,79,4.0,6.0,74,0.00,,,0.00,meteohub,2013-11-03 12:22:00,
2013-11-03 07:27:00,44.1,36.0,30.00,SW,217,1.0,5.0,73,0.00,,,0.00,meteohub,2013-11-03 12:27:00,
2013-11-03 07:32:00,44.1,36.0,30.00,WSW,258,2.0,6.0,73,0.00,,,0.00,meteohub,2013-11-03 12:32:00,
2013-11-03 07:37:00,44.1,35.6,30.00,ESE,122,3.0,6.0,72,0.00,,,0.00,meteohub,2013-11-03 12:37:00,
2013-11-03 07:42:00,44.2,36.1,30.00,SE,128,1.0,6.0,73,0.00,,,0.00,meteohub,2013-11-03 12:42:00,
2013-11-03 07:47:00,44.2,36.1,30.01,ESE,110,1.0,6.0,73,0.00,,,0.00,meteohub,2013-11-03 12:47:00,
2013-11-03 07:52:00,44.2,35.8,30.01,WNW,294,1.0,6.0,72,0.00,,,0.00,meteohub,2013-11-03 12:52:00,
2013-11-03 07:57:00,44.2,36.1,30.01,WSW,243,2.0,5.0,73,0.00,,,0.00,meteohub,2013-11-03 12:57:00,
2013-11-03 08:02:00,44.2,36.1,30.02,SW,224,1.0,7.0,73,0.00,,,0.00,meteohub,2013-11-03 13:02:00,
2013-11-03 08:07:00,44.4,36.7,30.02,WNW,299,1.0,7.0,74,0.00,,,0.00,meteohub,2013-11-03 13:07:00,
2013-11-03 08:12:00,44.6,36.5,30.03,WSW,239,3.0,7.0,73,0.00,,,0.00,meteohub,2013-11-03 13:12:00,
2013-11-03 08:17:00,44.8,36.0,30.03,West,281,1.0,7.0,71,0.00,,,0.00,meteohub,2013-11-03 13:17:00,
2013-11-03 08:22:00,45.0,36.5,30.03,North,8,5.0,7.0,72,0.00,,,0.00,meteohub,2013-11-03 13:22:00,
2013-11-03 08:27:00,45.1,36.3,30.03,SW,231,4.0,9.0,71,0.00,,,0.00,meteohub,2013-11-03 13:27:00,
2013-11-03 08:32:00,45.3,37.2,30.03,WNW,300,2.0,9.0,73,0.00,,,0.00,meteohub,2013-11-03 13:32:00,
2013-11-03 08:37:00,45.5,36.7,30.03,WSW,250,5.0,9.0,71,0.00,,,0.00,meteohub,2013-11-03 13:37:00,
2013-11-03 08:42:00,45.7,36.9,30.04,ENE,73,3.0,9.0,71,0.00,,,0.00,meteohub,2013-11-03 13:42:00,
2013-11-03 08:47:00,45.5,36.0,30.04,SSW,211,3.0,9.0,69,0.00,,,0.00,meteohub,2013-11-03 13:47:00,
2013-11-03 08:52:00,45.3,36.1,30.05,SW,226,2.0,9.0,70,0.00,,,0.00,meteohub,2013-11-03 13:52:00,
2013-11-03 08:57:00,45.1,36.0,30.05,West,260,2.0,6.0,70,0.00,,,0.00,meteohub,2013-11-03 13:57:00,
2013-11-03 09:02:00,45.1,36.0,30.06,West,271,2.0,8.0,70,0.00,,,0.00,meteohub,2013-11-03 14:02:00,
2013-11-03 09:07:00,45.0,36.1,30.06,WSW,240,3.0,8.0,71,0.00,,,0.00,meteohub,2013-11-03 14:07:00,
2013-11-03 09:12:00,44.8,35.6,30.06,SSW,195,2.0,9.0,70,0.00,,,0.00,meteohub,2013-11-03 14:12:00,
2013-11-03 09:17:00,45.0,35.8,30.06,East,79,1.0,9.0,70,0.00,,,0.00,meteohub,2013-11-03 14:17:00,
2013-11-03 09:22:00,45.0,35.8,30.06,SE,124,2.0,9.0,70,0.00,,,0.00,meteohub,2013-11-03 14:22:00,
2013-11-03 09:27:00,45.3,35.8,30.07,WSW,239,2.0,7.0,69,0.00,,,0.00,meteohub,2013-11-03 14:27:00,
2013-11-03 09:32:00,45.5,36.3,30.07,SE,134,3.0,7.0,70,0.00,,,0.00,meteohub,2013-11-03 14:32:00,
2013-11-03 09:37:00,45.5,36.3,30.07,WSW,255,3.0,7.0,70,0.00,,,0.00,meteohub,2013-11-03 14:37:00,
2013-11-03 09:42:00,45.1,35.6,30.07,WSW,256,4.0,8.0,69,0.00,,,0.00,meteohub,2013-11-03 14:42:00,
2013-11-03 09:47:00,45.0,35.8,30.08,WSW,240,1.0,8.0,70,0.00,,,0.00,meteohub,2013-11-03 14:47:00,
2013-11-03 09:52:00,45.0,35.8,30.08,WNW,289,3.0,8.0,70,0.00,,,0.00,meteohub,2013-11-03 14:52:00,
2013-11-03 09:57:00,45.0,35.8,30.09,SSW,203,1.0,9.0,70,0.00,,,0.00,meteohub,2013-11-03 14:57:00,
2013-11-03 10:02:00,45.1,36.0,30.09,NE,46,2.0,9.0,70,0.00,,,0.00,meteohub,2013-11-03 15:02:00,
2013-11-03 10:07:00,45.1,35.6,30.09,WNW,302,3.0,9.0,69,0.00,,,0.00,meteohub,2013-11-03 15:07:00,
2013-11-03 10:12:00,45.1,36.0,30.09,West,263,1.0,8.0,70,0.00,,,0.00,meteohub,2013-11-03 15:12:00,
2013-11-03 10:17:00,45.1,35.6,30.10,WSW,248,5.0,8.0,69,0.00,,,0.00,meteohub,2013-11-03 15:17:00,
2013-11-03 10:22:00,45.0,35.8,30.10,West,274,2.0,8.0,70,0.00,,,0.00,meteohub,2013-11-03 15:22:00,
2013-11-03 10:27:00,45.1,35.6,30.10,WSW,257,3.0,10.0,69,0.00,,,0.00,meteohub,2013-11-03 15:27:00,
2013-11-03 10:32:00,45.3,35.8,30.10,WNW,297,2.0,10.0,69,0.00,,,0.00,meteohub,2013-11-03 15:32:00,
2013-11-03 10:37:00,45.3,35.4,30.11,NNE,23,4.0,7.0,68,0.00,,,0.00,meteohub,2013-11-03 15:37:00,
2013-11-03 10:42:00,45.5,35.6,30.11,West,262,6.0,11.0,68,0.00,,,0.00,meteohub,2013-11-03 15:42:00,
2013-11-03 10:47:00,45.9,35.6,30.11,West,277,5.0,11.0,67,0.00,,,0.00,meteohub,2013-11-03 15:47:00,
2013-11-03 10:52:00,46.0,34.5,30.11,West,276,1.0,9.0,64,0.00,,,0.00,meteohub,2013-11-03 15:52:00,
2013-11-03 10:57:00,46.2,35.1,30.11,ENE,58,1.0,9.0,65,0.00,,,0.00,meteohub,2013-11-03 15:57:00,
2013-11-03 11:02:00,46.2,35.1,30.11,ENE,63,1.0,9.0,65,0.00,,,0.00,meteohub,2013-11-03 16:02:00,
2013-11-03 11:07:00,46.9,36.1,30.11,SE,137,1.0,6.0,66,0.00,,,0.00,meteohub,2013-11-03 16:07:00,
2013-11-03 11:12:00,47.7,35.6,30.11,West,264,2.0,9.0,63,0.00,,,0.00,meteohub,2013-11-03 16:12:00,
2013-11-03 11:17:00,47.8,35.8,30.11,SSW,203,1.0,9.0,63,0.00,,,0.00,meteohub,2013-11-03 16:17:00,
2013-11-03 11:22:00,48.7,36.0,30.11,SSW,200,2.0,7.0,61,0.00,,,0.00,meteohub,2013-11-03 16:22:00,
2013-11-03 11:27:00,48.9,34.9,30.11,WNW,297,0.0,7.0,58,0.00,,,0.00,meteohub,2013-11-03 16:27:00,
2013-11-03 11:32:00,49.1,35.4,30.10,SW,236,2.0,8.0,59,0.00,,,0.00,meteohub,2013-11-03 16:32:00,
2013-11-03 11:37:00,49.3,35.1,30.10,NNW,332,1.0,8.0,58,0.00,,,0.00,meteohub,2013-11-03 16:37:00,
2013-11-03 11:42:00,49.5,35.8,30.10,NE,51,0.0,9.0,59,0.00,,,0.00,meteohub,2013-11-03 16:42:00,
2013-11-03 11:47:00,50.4,35.2,30.10,West,273,2.0,9.0,56,0.00,,,0.00,meteohub,2013-11-03 16:47:00,
2013-11-03 11:52:00,50.2,34.7,30.10,WNW,294,3.0,9.0,55,0.00,,,0.00,meteohub,2013-11-03 16:52:00,
2013-11-03 11:57:00,50.0,35.8,30.10,SSW,210,2.0,5.0,58,0.00,,,0.00,meteohub,2013-11-03 16:57:00,
2013-11-03 12:02:00,50.7,35.1,30.10,NW,318,1.0,5.0,55,0.00,,,0.00,meteohub,2013-11-03 17:02:00,
2013-11-03 12:07:00,51.1,34.5,30.10,West,277,1.0,8.0,53,0.00,,,0.00,meteohub,2013-11-03 17:07:00,
2013-11-03 12:12:00,51.3,33.8,30.10,West,266,3.0,11.0,51,0.00,,,0.00,meteohub,2013-11-03 17:12:00,
2013-11-03 12:17:00,50.9,32.4,30.10,WSW,248,2.0,11.0,49,0.00,,,0.00,meteohub,2013-11-03 17:17:00,
2013-11-03 12:22:00,51.3,32.7,30.10,West,269,3.0,11.0,49,0.00,,,0.00,meteohub,2013-11-03 17:22:00,
2013-11-03 12:27:00,51.1,32.5,30.11,WSW,255,2.0,10.0,49,0.00,,,0.00,meteohub,2013-11-03 17:27:00,
2013-11-03 12:32:00,51.1,33.1,30.11,West,281,3.0,11.0,50,0.00,,,0.00,meteohub,2013-11-03 17:32:00,
2013-11-03 12:37:00,51.4,32.9,30.11,NNW,329,4.0,11.0,49,0.00,,,0.00,meteohub,2013-11-03 17:37:00,
2013-11-03 12:42:00,51.6,32.0,30.11,WSW,257,2.0,11.0,47,0.00,,,0.00,meteohub,2013-11-03 17:42:00,
2013-11-03 12:47:00,51.6,33.6,30.10,WNW,301,1.0,7.0,50,0.00,,,0.00,meteohub,2013-11-03 17:47:00,
2013-11-03 12:52:00,52.2,32.0,30.11,SW,214,3.0,8.0,46,0.00,,,0.00,meteohub,2013-11-03 17:52:00,
2013-11-03 12:57:00,51.6,32.0,30.10,WSW,239,5.0,9.0,47,0.00,,,0.00,meteohub,2013-11-03 17:57:00,
2013-11-03 13:02:00,51.6,33.1,30.10,WSW,250,2.0,9.0,49,0.00,,,0.00,meteohub,2013-11-03 18:02:00,
2013-11-03 13:07:00,51.8,32.2,30.10,WSW,246,4.0,9.0,47,0.00,,,0.00,meteohub,2013-11-03 18:07:00,
2013-11-03 13:12:00,51.6,31.5,30.10,WNW,297,3.0,11.0,46,0.00,,,0.00,meteohub,2013-11-03 18:12:00,
2013-11-03 13:17:00,51.4,30.7,30.10,West,281,5.0,11.0,45,0.00,,,0.00,meteohub,2013-11-03 18:17:00,
2013-11-03 13:22:00,51.6,30.9,30.10,West,267,1.0,9.0,45,0.00,,,0.00,meteohub,2013-11-03 18:22:00,
2013-11-03 13:27:00,51.4,29.7,30.10,SSW,212,2.0,9.0,43,0.00,,,0.00,meteohub,2013-11-03 18:27:00,
2013-11-03 13:32:00,51.6,30.9,30.11,SSE,167,2.0,9.0,45,0.00,,,0.00,meteohub,2013-11-03 18:32:00,
2013-11-03 13:37:00,51.8,30.6,30.11,WNW,289,6.0,9.0,44,0.00,,,0.00,meteohub,2013-11-03 18:37:00,
2013-11-03 13:42:00,51.1,29.8,30.11,West,268,3.0,11.0,44,0.00,,,0.00,meteohub,2013-11-03 18:42:00,
2013-11-03 13:47:00,51.1,31.1,30.11,West,280,4.0,12.0,46,0.00,,,0.00,meteohub,2013-11-03 18:47:00,
2013-11-03 13:52:00,51.3,31.6,30.11,South,190,2.0,12.0,47,0.00,,,0.00,meteohub,2013-11-03 18:52:00,
2013-11-03 13:57:00,51.3,30.6,30.11,NW,318,2.0,12.0,45,0.00,,,0.00,meteohub,2013-11-03 18:57:00,
2013-11-03 14:02:00,51.3,31.6,30.11,West,281,1.0,8.0,47,0.00,,,0.00,meteohub,2013-11-03 19:02:00,
2013-11-03 14:07:00,51.4,31.3,30.11,WNW,285,4.0,10.0,46,0.00,,,0.00,meteohub,2013-11-03 19:07:00,
2013-11-03 14:12:00,51.3,30.0,30.12,WNW,294,2.0,10.0,44,0.00,,,0.00,meteohub,2013-11-03 19:12:00,
2013-11-03 14:17:00,51.4,29.7,30.12,WNW,287,3.0,9.0,43,0.00,,,0.00,meteohub,2013-11-03 19:17:00,
2013-11-03 14:22:00,51.6,30.4,30.12,ENE,60,4.0,9.0,44,0.00,,,0.00,meteohub,2013-11-03 19:22:00,
2013-11-03 14:27:00,51.4,30.2,30.12,NNW,341,1.0,8.0,44,0.00,,,0.00,meteohub,2013-11-03 19:27:00,
2013-11-03 14:32:00,51.6,29.8,30.13,WNW,294,3.0,8.0,43,0.00,,,0.00,meteohub,2013-11-03 19:32:00,
2013-11-03 14:37:00,51.1,27.7,30.13,WNW,289,4.0,11.0,40,0.00,,,0.00,meteohub,2013-11-03 19:37:00,
2013-11-03 14:42:00,51.1,28.2,30.13,North,354,2.0,11.0,41,0.00,,,0.00,meteohub,2013-11-03 19:42:00,
2013-11-03 14:47:00,50.9,28.6,30.14,WNW,293,5.0,11.0,42,0.00,,,0.00,meteohub,2013-11-03 19:47:00,
2013-11-03 14:52:00,50.9,28.0,30.14,WNW,290,2.0,8.0,41,0.00,,,0.00,meteohub,2013-11-03 19:52:00,
2013-11-03 14:57:00,50.7,27.9,30.14,WSW,257,2.0,8.0,41,0.00,,,0.00,meteohub,2013-11-03 19:57:00,
2013-11-03 15:02:00,50.5,28.2,30.14,WSW,240,2.0,7.0,42,0.00,,,0.00,meteohub,2013-11-03 20:02:00,
2013-11-03 15:07:00,50.5,28.2,30.14,East,86,2.0,9.0,42,0.00,,,0.00,meteohub,2013-11-03 20:07:00,
2013-11-03 15:12:00,50.4,27.5,30.15,SSE,162,2.0,9.0,41,0.00,,,0.00,meteohub,2013-11-03 20:12:00,
2013-11-03 15:17:00,50.2,27.3,30.15,WNW,289,1.0,9.0,41,0.00,,,0.00,meteohub,2013-11-03 20:17:00,
2013-11-03 15:22:00,49.8,27.1,30.15,SE,129,2.0,7.0,41,0.00,,,0.00,meteohub,2013-11-03 20:22:00,
2013-11-03 15:27:00,49.8,27.1,30.15,SSE,150,2.0,7.0,41,0.00,,,0.00,meteohub,2013-11-03 20:27:00,
2013-11-03 15:32:00,49.6,28.0,30.16,WSW,256,1.0,9.0,43,0.00,,,0.00,meteohub,2013-11-03 20:32:00,
2013-11-03 15:37:00,49.6,26.2,30.16,West,274,3.0,9.0,40,0.00,,,0.00,meteohub,2013-11-03 20:37:00,
2013-11-03 15:42:00,49.3,27.1,30.16,WNW,293,1.0,8.0,42,0.00,,,0.00,meteohub,2013-11-03 20:42:00,
2013-11-03 15:47:00,48.9,26.8,30.17,WNW,291,6.0,12.0,42,0.00,,,0.00,meteohub,2013-11-03 20:47:00,
2013-11-03 15:52:00,48.4,27.0,30.17,WSW,243,4.0,12.0,43,0.00,,,0.00,meteohub,2013-11-03 20:52:00,
2013-11-03 15:57:00,48.4,27.0,30.17,WSW,245,1.0,12.0,43,0.00,,,0.00,meteohub,2013-11-03 20:57:00,
2013-11-03 16:02:00,48.4,27.5,30.18,NW,305,2.0,6.0,44,0.00,,,0.00,meteohub,2013-11-03 21:02:00,
2013-11-03 16:07:00,48.2,27.3,30.18,SSW,207,1.0,6.0,44,0.00,,,0.00,meteohub,2013-11-03 21:07:00,
2013-11-03 16:12:00,47.7,26.8,30.19,WSW,253,3.0,9.0,44,0.00,,,0.00,meteohub,2013-11-03 21:12:00,
2013-11-03 16:17:00,46.9,26.8,30.19,West,262,2.0,9.0,45,0.00,,,0.00,meteohub,2013-11-03 21:17:00,
2013-11-03 16:22:00,46.6,25.9,30.20,WSW,258,2.0,9.0,44,0.00,,,0.00,meteohub,2013-11-03 21:22:00,
2013-11-03 16:27:00,46.0,25.9,30.20,NW,312,1.0,8.0,45,0.00,,,0.00,meteohub,2013-11-03 21:27:00,
2013-11-03 16:32:00,45.5,25.9,30.20,NNE,15,1.0,6.0,46,0.00,,,0.00,meteohub,2013-11-03 21:32:00,
2013-11-03 16:37:00,45.0,25.9,30.21,WSW,256,1.0,6.0,47,0.00,,,0.00,meteohub,2013-11-03 21:37:00,
2013-11-03 16:42:00,44.2,25.7,30.21,NNE,28,5.0,7.0,48,0.00,,,0.00,meteohub,2013-11-03 21:42:00,
2013-11-03 16:47:00,43.5,25.7,30.22,SW,217,3.0,12.0,49,0.00,,,0.00,meteohub,2013-11-03 21:47:00,
2013-11-03 16:52:00,43.0,24.6,30.22,WSW,246,2.0,12.0,48,0.00,,,0.00,meteohub,2013-11-03 21:52:00,
2013-11-03 16:57:00,42.4,24.1,30.23,West,273,0.0,12.0,48,0.00,,,0.00,meteohub,2013-11-03 21:57:00,
2013-11-03 17:02:00,41.9,24.1,30.23,SW,231,1.0,7.0,49,0.00,,,0.00,meteohub,2013-11-03 22:02:00,
2013-11-03 17:07:00,41.4,24.1,30.23,SSE,165,2.0,7.0,50,0.00,,,0.00,meteohub,2013-11-03 22:07:00,
2013-11-03 17:12:00,41.2,23.9,30.24,NNW,348,1.0,7.0,50,0.00,,,0.00,meteohub,2013-11-03 22:12:00,
2013-11-03 17:17:00,40.8,23.5,30.25,SW,221,1.0,7.0,50,0.00,,,0.00,meteohub,2013-11-03 22:17:00,
2013-11-03 17:22:00,40.5,23.4,30.25,East,91,1.0,7.0,50,0.00,,,0.00,meteohub,2013-11-03 22:22:00,
2013-11-03 17:27:00,40.1,23.4,30.25,SW,219,2.0,10.0,51,0.00,,,0.00,meteohub,2013-11-03 22:27:00,
2013-11-03 17:32:00,39.7,23.5,30.25,WNW,292,3.0,10.0,52,0.00,,,0.00,meteohub,2013-11-03 22:32:00,
2013-11-03 17:37:00,39.6,23.9,30.26,NW,316,1.0,10.0,53,0.00,,,0.00,meteohub,2013-11-03 22:37:00,
2013-11-03 17:42:00,39.2,23.9,30.26,West,271,1.0,6.0,54,0.00,,,0.00,meteohub,2013-11-03 22:42:00,
2013-11-03 17:47:00,38.8,23.5,30.27,SSW,211,3.0,6.0,54,0.00,,,0.00,meteohub,2013-11-03 22:47:00,
2013-11-03 17:52:00,38.8,23.5,30.27,WSW,255,0.0,6.0,54,0.00,,,0.00,meteohub,2013-11-03 22:52:00,
2013-11-03 17:57:00,38.7,23.4,30.27,SW,231,1.0,6.0,54,0.00,,,0.00,meteohub,2013-11-03 22:57:00,
2013-11-03 18:02:00,38.5,23.7,30.28,WSW,248,1.0,6.0,55,0.00,,,0.00,meteohub,2013-11-03 23:02:00,
2013-11-03 18:07:00,38.1,23.4,30.28,WSW,256,2.0,6.0,55,0.00,,,0.00,meteohub,2013-11-03 23:07:00,
2013-11-03 18:12:00,37.9,23.7,30.28,WSW,257,1.0,5.0,56,0.00,,,0.00,meteohub,2013-11-03 23:12:00,
2013-11-03 18:17:00,37.9,23.7,30.28,West,278,1.0,5.0,56,0.00,,,0.00,meteohub,2013-11-03 23:17:00,
2013-11-03 18:22:00,37.8,23.5,30.29,SW,221,0.0,7.0,56,0.00,,,0.00,meteohub,2013-11-03 23:22:00,
2013-11-03 18:27:00,37.6,23.4,30.29,WNW,302,0.0,7.0,56,0.00,,,0.00,meteohub,2013-11-03 23:27:00,
2013-11-03 18:32:00,37.2,23.4,30.29,West,260,1.0,4.0,57,0.00,,,0.00,meteohub,2013-11-03 23:32:00,
2013-11-03 18:37:00,37.0,23.7,30.29,SSW,208,1.0,3.0,58,0.00,,,0.00,meteohub,2013-11-03 23:37:00,
2013-11-03 18:42:00,36.9,23.5,30.30,SSW,195,3.0,3.0,58,0.00,,,0.00,meteohub,2013-11-03 23:42:00,
2013-11-03 18:47:00,36.9,23.5,30.30,WNW,295,0.0,5.0,58,0.00,,,0.00,meteohub,2013-11-03 23:47:00,
2013-11-03 18:52:00,36.7,23.4,30.30,NW,311,0.0,5.0,58,0.00,,,0.00,meteohub,2013-11-03 23:52:00,
2013-11-03 18:57:00,36.5,23.5,30.30,NW,310,0.0,5.0,59,0.00,,,0.00,meteohub,2013-11-03 23:57:00,
2013-11-03 19:02:00,36.0,23.0,30.30,NW,311,0.0,3.0,59,0.00,,,0.00,meteohub,2013-11-04 00:02:00,
2013-11-03 19:07:00,35.8,23.2,30.30,ESE,117,0.0,2.0,60,0.00,,,0.00,meteohub,2013-11-04 00:07:00,
2013-11-03 19:12:00,35.6,23.0,30.31,WNW,302,0.0,2.0,60,0.00,,,0.00,meteohub,2013-11-04 00:12:00,
2013-11-03 19:17:00,35.4,23.0,30.31,ENE,63,0.0,3.0,60,0.00,,,0.00,meteohub,2013-11-04 00:17:00,
2013-11-03 19:22:00,35.1,23.0,30.31,East,89,0.0,3.0,61,0.00,,,0.00,meteohub,2013-11-04 00:22:00,
2013-11-03 19:27:00,34.5,22.8,30.31,East,89,0.0,3.0,62,0.00,,,0.00,meteohub,2013-11-04 00:27:00,
2013-11-03 19:32:00,34.2,22.5,30.31,East,89,0.0,0.0,62,0.00,,,0.00,meteohub,2013-11-04 00:32:00,
2013-11-03 19:37:00,33.6,22.8,30.32,East,89,0.0,0.0,64,0.00,,,0.00,meteohub,2013-11-04 00:37:00,
2013-11-03 19:42:00,33.1,23.4,30.32,East,89,0.0,0.0,67,0.00,,,0.00,meteohub,2013-11-04 00:42:00,
2013-11-03 19:47:00,32.7,23.0,30.32,East,87,0.0,0.0,67,0.00,,,0.00,meteohub,2013-11-04 00:47:00,
2013-11-03 19:52:00,32.7,23.0,30.32,ENE,69,2.0,3.0,67,0.00,,,0.00,meteohub,2013-11-04 00:52:00,
2013-11-03 19:57:00,33.1,23.4,30.32,ENE,69,0.0,3.0,67,0.00,,,0.00,meteohub,2013-11-04 00:57:00,
2013-11-03 20:02:00,32.7,23.0,30.33,ENE,70,0.0,3.0,67,0.00,,,0.00,meteohub,2013-11-04 01:02:00,
2013-11-03 20:07:00,32.2,22.8,30.33,ENE,69,0.0,2.0,68,0.00,,,0.00,meteohub,2013-11-04 01:07:00,
2013-11-03 20:12:00,31.5,22.8,30.33,ENE,69,0.0,1.0,70,0.00,,,0.00,meteohub,2013-11-04 01:12:00,
2013-11-03 20:17:00,30.9,22.6,30.33,ENE,70,0.0,0.0,71,0.00,,,0.00,meteohub,2013-11-04 01:17:00,
2013-11-03 20:22:00,30.4,22.5,30.33,ENE,70,0.0,0.0,72,0.00,,,0.00,meteohub,2013-11-04 01:22:00,
2013-11-03 20:27:00,30.2,22.3,30.34,East,89,0.0,2.0,72,0.00,,,0.00,meteohub,2013-11-04 01:27:00,
2013-11-03 20:32:00,30.4,22.1,30.34,NW,314,1.0,2.0,71,0.00,,,0.00,meteohub,2013-11-04 01:32:00,
2013-11-03 20:37:00,30.6,22.6,30.34,SE,139,0.0,3.0,72,0.00,,,0.00,meteohub,2013-11-04 01:37:00,
2013-11-03 20:42:00,30.6,22.3,30.35,SE,139,0.0,3.0,71,0.00,,,0.00,meteohub,2013-11-04 01:42:00,
2013-11-03 20:47:00,30.6,21.9,30.35,SE,138,0.0,1.0,70,0.00,,,0.00,meteohub,2013-11-04 01:47:00,
2013-11-03 20:52:00,30.9,21.9,30.35,ENE,73,0.0,2.0,69,0.00,,,0.00,meteohub,2013-11-04 01:52:00,
2013-11-03 20:57:00,30.9,22.3,30.35,ENE,61,0.0,2.0,70,0.00,,,0.00,meteohub,2013-11-04 01:57:00,
2013-11-03 21:02:00,30.6,22.6,30.35,ENE,61,0.0,2.0,72,0.00,,,0.00,meteohub,2013-11-04 02:02:00,
2013-11-03 21:07:00,30.0,22.1,30.35,ENE,60,0.0,1.0,72,0.00,,,0.00,meteohub,2013-11-04 02:07:00,
2013-11-03 21:12:00,29.7,22.1,30.35,East,101,0.0,1.0,73,0.00,,,0.00,meteohub,2013-11-04 02:12:00,
2013-11-03 21:17:00,29.5,21.9,30.36,East,98,1.0,1.0,73,0.00,,,0.00,meteohub,2013-11-04 02:17:00,
2013-11-03 21:22:00,29.8,21.6,30.36,East,79,1.0,1.0,71,0.00,,,0.00,meteohub,2013-11-04 02:22:00,
2013-11-03 21:27:00,30.0,22.1,30.37,East,79,0.0,2.0,72,0.00,,,0.00,meteohub,2013-11-04 02:27:00,
2013-11-03 21:32:00,29.8,21.6,30.37,ENE,78,0.0,2.0,71,0.00,,,0.00,meteohub,2013-11-04 02:32:00,
2013-11-03 21:37:00,29.8,21.6,30.37,ENE,78,0.0,2.0,71,0.00,,,0.00,meteohub,2013-11-04 02:37:00,
2013-11-03 21:42:00,29.7,21.4,30.37,ENE,73,0.0,1.0,71,0.00,,,0.00,meteohub,2013-11-04 02:42:00,
2013-11-03 21:47:00,29.8,21.2,30.38,ENE,73,0.0,1.0,70,0.00,,,0.00,meteohub,2013-11-04 02:47:00,
2013-11-03 21:52:00,29.7,22.1,30.38,ENE,73,0.0,0.0,73,0.00,,,0.00,meteohub,2013-11-04 02:52:00,
2013-11-03 21:57:00,29.1,21.6,30.38,ENE,74,0.0,0.0,73,0.00,,,0.00,meteohub,2013-11-04 02:57:00,
2013-11-03 22:02:00,28.8,21.2,30.38,ENE,73,0.0,0.0,73,0.00,,,0.00,meteohub,2013-11-04 03:02:00,
2013-11-03 22:07:00,28.2,21.4,30.39,ENE,73,0.0,0.0,75,0.00,,,0.00,meteohub,2013-11-04 03:07:00,
2013-11-03 22:12:00,27.9,21.2,30.39,ENE,73,0.0,0.0,76,0.00,,,0.00,meteohub,2013-11-04 03:12:00,
2013-11-03 22:17:00,27.7,21.0,30.39,ENE,75,0.0,0.0,76,0.00,,,0.00,meteohub,2013-11-04 03:17:00,
2013-11-03 22:22:00,27.9,21.0,30.40,ENE,75,0.0,0.0,75,0.00,,,0.00,meteohub,2013-11-04 03:22:00,
2013-11-03 22:27:00,27.9,21.0,30.40,ENE,75,0.0,0.0,75,0.00,,,0.00,meteohub,2013-11-04 03:27:00,
2013-11-03 22:32:00,27.7,22.3,30.40,ENE,75,0.0,0.0,80,0.00,,,0.00,meteohub,2013-11-04 03:32:00,
2013-11-03 22:37:00,27.5,22.8,30.40,ENE,75,0.0,0.0,82,0.00,,,0.00,meteohub,2013-11-04 03:37:00,
2013-11-03 22:42:00,27.1,22.1,30.40,ENE,75,0.0,0.0,81,0.00,,,0.00,meteohub,2013-11-04 03:42:00,
2013-11-03 22:47:00,26.8,21.4,30.40,ENE,75,0.0,0.0,80,0.00,,,0.00,meteohub,2013-11-04 03:47:00,
2013-11-03 22:52:00,26.4,21.0,30.41,ENE,75,0.0,0.0,80,0.00,,,0.00,meteohub,2013-11-04 03:52:00,
2013-11-03 22:57:00,26.4,21.4,30.41,ENE,75,0.0,0.0,81,0.00,,,0.00,meteohub,2013-11-04 03:57:00,
2013-11-03 23:02:00,26.2,21.2,30.41,ENE,75,0.0,0.0,81,0.00,,,0.00,meteohub,2013-11-04 04:02:00,
2013-11-03 23:07:00,26.2,21.6,30.41,ENE,75,0.0,0.0,82,0.00,,,0.00,meteohub,2013-11-04 04:07:00,
2013-11-03 23:12:00,26.1,21.0,30.41,ENE,75,0.0,0.0,81,0.00,,,0.00,meteohub,2013-11-04 04:12:00,
2013-11-03 23:17:00,26.1,21.0,30.41,ENE,75,0.0,0.0,81,0.00,,,0.00,meteohub,2013-11-04 04:17:00,
2013-11-03 23:22:00,26.1,21.0,30.41,ENE,75,0.0,0.0,81,0.00,,,0.00,meteohub,2013-11-04 04:22:00,
2013-11-03 23:27:00,26.1,21.0,30.42,ENE,75,0.0,0.0,81,0.00,,,0.00,meteohub,2013-11-04 04:27:00,
2013-11-03 23:32:00,26.1,21.4,30.42,ENE,75,0.0,0.0,82,0.00,,,0.00,meteohub,2013-11-04 04:32:00,
2013-11-03 23:37:00,25.9,21.2,30.42,ENE,75,0.0,0.0,82,0.00,,,0.00,meteohub,2013-11-04 04:37:00,
2013-11-03 23:42:00,25.3,20.7,30.42,ENE,75,0.0,0.0,82,0.00,,,0.00,meteohub,2013-11-04 04:42:00,
2013-11-03 23:47:00,25.2,20.7,30.42,ENE,75,0.0,0.0,83,0.00,,,0.00,meteohub,2013-11-04 04:47:00,
2013-11-03 23:52:00,25.2,20.7,30.42,ENE,75,0.0,0.0,83,0.00,,,0.00,meteohub,2013-11-04 04:52:00,
2013-11-03 23:57:00,25.3,20.8,30.42,East,81,1.0,0.0,83,0.00,,,0.00,meteohub,2013-11-04 04:57:00,